createdAt,value
2018-04-16T00:01:48.096Z,33.97
2018-04-16T00:04:15.620Z,32.90
2018-04-16T00:06:43.941Z,35.97
2018-04-16T00:09:11.477Z,40.07
2018-04-16T00:11:38.999Z,40.60
2018-04-16T00:14:06.576Z,37.37
2018-04-16T00:16:34.879Z,38.90
2018-04-16T00:19:02.525Z,39.13
2018-04-16T00:21:30.081Z,39.10
2018-04-16T00:23:57.626Z,36.73
2018-04-16T00:26:25.935Z,34.33
2018-04-16T00:28:53.510Z,38.90
2018-04-16T00:31:21.071Z,40.83
2018-04-16T00:33:54.467Z,35.93
2018-04-16T00:36:27.597Z,36.73
2018-04-16T00:39:01.563Z,32.87
2018-04-16T00:41:34.725Z,35.80
2018-04-16T00:44:20.240Z,37.43
2018-04-16T00:46:53.395Z,33.90
2018-04-16T00:49:26.793Z,36.70
2018-04-16T00:52:12.012Z,34.40
2018-04-16T00:54:45.199Z,35.70
2018-04-16T00:57:18.403Z,34.53
2018-04-16T00:59:51.797Z,36.20
2018-04-16T01:02:24.981Z,36.97
2018-04-16T01:04:58.358Z,33.53
2018-04-16T01:07:31.670Z,35.83
2018-04-16T01:10:04.994Z,35.27
2018-04-16T01:12:38.978Z,42.07
2018-04-16T01:18:17.549Z,36.90
2018-04-16T01:20:50.800Z,35.53
2018-04-16T01:23:23.984Z,35.83
2018-04-16T01:25:57.979Z,32.90
2018-04-16T01:28:31.197Z,34.50
2018-04-16T01:31:04.441Z,36.90
2018-04-16T01:33:37.700Z,32.47
2018-04-16T01:36:11.802Z,36.97
2018-04-16T01:38:47.142Z,34.80
2018-04-16T01:41:20.370Z,35.00
2018-04-16T01:43:53.470Z,36.00
2018-04-16T01:46:26.570Z,34.63
2018-04-16T01:48:59.783Z,34.50
2018-04-16T01:51:32.963Z,33.57
2018-04-16T01:54:06.169Z,33.97
2018-04-16T01:56:39.530Z,36.93
2018-04-16T01:59:12.787Z,36.47
2018-04-16T02:01:46.685Z,38.37
2018-04-16T02:04:20.889Z,35.20
2018-04-16T02:06:54.115Z,37.70
2018-04-16T02:09:27.346Z,37.50
2018-04-16T02:12:00.605Z,39.20
2018-04-16T02:14:33.977Z,39.00
2018-04-16T02:17:08.145Z,41.27
2018-04-16T02:19:41.256Z,39.80
2018-04-16T02:22:14.515Z,46.80
2018-04-16T02:24:47.574Z,40.53
2018-04-16T02:27:20.683Z,40.60
2018-04-16T02:29:53.739Z,43.47
2018-04-16T02:32:27.639Z,45.63
2018-04-16T02:35:01.608Z,46.23
2018-04-16T02:37:34.851Z,42.20
2018-04-16T02:40:08.737Z,52.17
2018-04-16T02:42:41.887Z,47.47
2018-04-16T02:45:15.314Z,46.13
2018-04-16T02:47:49.327Z,44.50
2018-04-16T02:50:22.577Z,44.73
2018-04-16T02:52:56.491Z,44.03
2018-04-16T02:55:29.611Z,44.40
2018-04-16T02:58:03.675Z,44.87
2018-04-16T03:00:36.951Z,48.70
2018-04-16T03:03:11.015Z,50.07
2018-04-16T03:05:44.217Z,48.13
2018-04-16T03:08:17.455Z,48.83
2018-04-16T03:10:50.789Z,45.33
2018-04-16T03:13:23.973Z,41.40
2018-04-16T03:15:57.177Z,46.53
2018-04-16T03:18:30.328Z,41.00
2018-04-16T03:21:03.620Z,39.20
2018-04-16T03:23:37.022Z,37.67
2018-04-16T03:26:10.175Z,45.47
2018-04-16T03:28:44.175Z,41.20
2018-04-16T03:31:18.066Z,46.00
2018-04-16T03:33:51.456Z,45.53
2018-04-16T03:36:24.584Z,49.33
2018-04-16T03:38:58.489Z,42.37
2018-04-16T03:41:32.437Z,41.47
2018-04-16T03:44:05.552Z,39.00
2018-04-16T03:46:38.625Z,36.40
2018-04-16T03:49:11.704Z,45.50
2018-04-16T03:51:43.020Z,44.40
2018-04-16T03:54:10.533Z,39.10
2018-04-16T03:56:38.088Z,39.67
2018-04-16T03:59:05.659Z,37.77
2018-04-16T04:01:33.150Z,40.90
2018-04-16T04:04:01.475Z,40.87
2018-04-16T04:06:28.995Z,42.17
2018-04-16T04:08:56.515Z,41.33
2018-04-16T04:11:24.083Z,39.87
2018-04-16T04:13:52.366Z,36.20
2018-04-16T04:16:20.643Z,38.37
2018-04-16T04:18:48.950Z,44.93
2018-04-16T04:21:16.461Z,44.67
2018-04-16T04:23:55.918Z,40.67
2018-04-16T04:26:36.170Z,41.07
2018-04-16T04:29:16.275Z,35.60
2018-04-16T04:31:43.809Z,39.53
2018-04-16T04:34:11.340Z,36.90
2018-04-16T04:36:39.667Z,33.50
2018-04-16T04:39:07.195Z,37.17
2018-04-16T04:41:34.718Z,31.70
2018-04-16T04:44:02.264Z,33.57
2018-04-16T04:46:29.785Z,33.37
2018-04-16T04:48:57.298Z,33.67
2018-04-16T04:51:25.628Z,39.00
2018-04-16T04:53:53.145Z,36.70
2018-04-16T04:56:21.426Z,36.67
2018-04-16T04:58:49.745Z,32.93
2018-04-16T05:01:17.274Z,34.10
2018-04-16T05:03:45.389Z,41.33
2018-04-16T05:06:12.962Z,37.90
2018-04-16T05:08:40.503Z,43.27
2018-04-16T05:11:08.051Z,39.13
2018-04-16T05:13:35.607Z,34.30
2018-04-16T05:16:03.150Z,37.03
2018-04-16T05:18:30.706Z,37.37
2018-04-16T05:20:58.252Z,38.90
2018-04-16T05:23:25.782Z,34.20
2018-04-16T05:25:54.075Z,41.93
2018-04-16T05:28:22.419Z,33.80
2018-04-16T05:30:51.460Z,37.37
2018-04-16T05:33:18.986Z,37.03
2018-04-16T05:35:46.548Z,45.27
2018-04-16T05:38:14.833Z,36.77
2018-04-16T05:40:43.108Z,33.20
2018-04-16T05:43:11.436Z,37.77
2018-04-16T05:45:38.971Z,35.83
2018-04-16T05:48:06.482Z,29.90
2018-04-16T05:50:34.057Z,32.30
2018-04-16T05:53:02.472Z,32.53
2018-04-16T05:55:29.995Z,34.60
2018-04-16T05:57:57.574Z,37.27
2018-04-16T06:00:25.111Z,30.80
2018-04-16T06:02:53.389Z,32.30
2018-04-16T06:05:21.098Z,37.50
2018-04-16T06:07:48.618Z,31.20
2018-04-16T06:10:16.173Z,28.63
2018-04-16T06:12:44.499Z,31.60
2018-04-16T06:15:12.017Z,30.83
2018-04-16T06:17:39.567Z,32.23
2018-04-16T06:20:07.134Z,32.40
2018-04-16T06:22:34.670Z,30.73
2018-04-16T06:25:02.981Z,28.70
2018-04-16T06:27:30.584Z,29.67
2018-04-16T06:29:58.083Z,32.90
2018-04-16T06:32:25.612Z,35.53
2018-04-16T06:34:53.169Z,30.50
2018-04-16T06:37:20.695Z,31.43
2018-04-16T06:39:48.209Z,29.10
2018-04-16T06:42:16.543Z,30.67
2018-04-16T06:44:44.096Z,32.83
2018-04-16T06:47:11.627Z,31.90
2018-04-16T06:49:39.183Z,34.07
2018-04-16T06:52:06.729Z,30.40
2018-04-16T06:54:34.287Z,27.97
2018-04-16T06:57:01.852Z,28.67
2018-04-16T06:59:29.369Z,31.17
2018-04-16T07:01:56.950Z,26.73
2018-04-16T07:06:54.051Z,23.80
2018-04-16T07:09:21.598Z,26.60
2018-04-16T07:11:49.108Z,26.80
2018-04-16T07:14:16.731Z,26.80
2018-04-16T07:16:44.272Z,25.60
2018-04-16T07:19:11.833Z,25.60
2018-04-16T07:21:39.390Z,27.23
2018-04-16T07:24:06.917Z,30.40
2018-04-16T07:26:35.215Z,27.17
2018-04-16T07:29:02.790Z,25.00
2018-04-16T07:31:30.354Z,24.97
2018-04-16T07:33:57.878Z,25.27
2018-04-16T07:36:25.478Z,25.53
2018-04-16T07:38:53.120Z,22.87
2018-04-16T07:41:20.640Z,24.20
2018-04-16T07:43:49.002Z,23.27
2018-04-16T07:46:17.326Z,27.90
2018-04-16T07:48:44.837Z,24.97
2018-04-16T07:51:13.988Z,22.00
2018-04-16T07:53:41.508Z,23.17
2018-04-16T07:56:09.865Z,24.03
2018-04-16T07:58:37.430Z,22.23
2018-04-16T08:01:04.950Z,20.03
2018-04-16T08:03:32.465Z,23.90
2018-04-16T08:06:00.789Z,21.93
2018-04-16T08:08:28.329Z,21.23
2018-04-16T08:10:55.853Z,23.20
2018-04-16T08:13:24.188Z,18.90
2018-04-16T08:15:51.720Z,18.10
2018-04-16T08:18:19.254Z,21.20
2018-04-16T08:20:47.596Z,17.40
2018-04-16T08:23:15.136Z,11.53
2018-04-16T08:25:42.675Z,12.50
2018-04-16T08:28:10.342Z,12.87
2018-04-16T08:30:37.866Z,10.27
2018-04-16T08:33:06.182Z,15.93
2018-04-16T08:35:33.746Z,15.87
2018-04-16T08:38:01.293Z,17.53
2018-04-16T08:40:28.839Z,10.70
2018-04-16T08:42:56.401Z,14.80
2018-04-16T08:45:23.966Z,15.23
2018-04-16T08:47:51.509Z,14.03
2018-04-16T08:50:19.088Z,13.67
2018-04-16T08:52:46.628Z,16.13
2018-04-16T08:55:14.141Z,17.27
2018-04-16T08:57:41.697Z,20.50
2018-04-16T09:00:09.704Z,17.60
2018-04-16T09:02:38.018Z,17.83
2018-04-16T09:05:05.591Z,12.10
2018-04-16T09:07:33.114Z,14.93
2018-04-16T09:10:00.647Z,12.53
2018-04-16T09:12:28.968Z,32.73
2018-04-16T09:14:56.489Z,13.33
2018-04-16T09:17:24.820Z,14.93
2018-04-16T09:19:52.377Z,15.50
2018-04-16T09:22:19.915Z,16.40
2018-04-16T09:24:47.458Z,16.60
2018-04-16T09:27:15.022Z,14.53
2018-04-16T09:29:42.542Z,14.33
2018-04-16T09:32:10.835Z,18.33
2018-04-16T09:34:39.148Z,16.10
2018-04-16T09:37:06.675Z,16.20
2018-04-16T09:39:34.224Z,17.47
2018-04-16T09:42:01.759Z,15.13
2018-04-16T09:44:29.307Z,15.63
2018-04-16T09:46:56.825Z,17.93
2018-04-16T09:49:24.377Z,18.73
2018-04-16T09:51:51.894Z,15.60
2018-04-16T09:54:19.415Z,12.07
2018-04-16T09:56:47.080Z,13.93
2018-04-16T09:59:14.650Z,15.40
2018-04-16T10:01:42.174Z,12.67
2018-04-16T10:04:09.840Z,15.37
2018-04-16T10:06:37.412Z,13.93
2018-04-16T10:09:05.728Z,14.20
2018-04-16T10:11:34.042Z,11.37
2018-04-16T10:14:01.560Z,15.20
2018-04-16T10:16:29.102Z,14.13
2018-04-16T10:18:56.657Z,21.20
2018-04-16T10:21:24.175Z,14.77
2018-04-16T10:23:51.740Z,9.97
2018-04-16T10:26:19.317Z,12.00
2018-04-16T10:28:46.849Z,15.27
2018-04-16T10:31:14.367Z,15.23
2018-04-16T10:33:41.995Z,11.27
2018-04-16T10:36:09.507Z,13.33
2018-04-16T10:38:37.035Z,13.37
2018-04-16T10:41:04.624Z,17.77
2018-04-16T10:43:32.941Z,14.33
2018-04-16T10:46:00.459Z,14.60
2018-04-16T10:48:28.868Z,12.70
2018-04-16T10:50:56.401Z,18.70
2018-04-16T10:53:23.935Z,15.13
2018-04-16T10:55:52.268Z,17.07
2018-04-16T10:58:19.813Z,18.80
2018-04-16T11:00:47.360Z,17.87
2018-04-16T11:03:14.940Z,13.80
2018-04-16T11:05:42.461Z,16.20
2018-04-16T11:08:10.741Z,14.53
2018-04-16T11:10:39.067Z,13.10
2018-04-16T11:13:06.627Z,18.43
2018-04-16T11:15:34.120Z,15.87
2018-04-16T11:18:02.450Z,25.73
2018-04-16T11:20:29.966Z,21.77
2018-04-16T11:22:58.259Z,11.80
2018-04-16T11:25:25.815Z,20.53
2018-04-16T11:27:53.338Z,16.07
2018-04-16T11:30:20.866Z,15.60
2018-04-16T11:32:48.420Z,20.00
2018-04-16T11:35:15.939Z,17.03
2018-04-16T11:37:43.485Z,12.73
2018-04-16T11:40:11.799Z,13.77
2018-04-16T11:42:39.338Z,14.37
2018-04-16T11:45:06.871Z,19.47
2018-04-16T11:47:35.201Z,16.73
2018-04-16T11:50:02.717Z,15.97
2018-04-16T11:52:31.000Z,11.63
2018-04-16T11:54:58.573Z,14.00
2018-04-16T11:57:26.170Z,14.27
2018-04-16T11:59:53.665Z,10.33
2018-04-16T12:02:21.984Z,10.50
2018-04-16T12:04:49.494Z,6.50
2018-04-16T12:07:17.781Z,8.10
2018-04-16T12:09:46.111Z,8.43
2018-04-16T12:12:13.626Z,12.23
2018-04-16T12:14:41.918Z,10.60
2018-04-16T12:17:09.461Z,10.80
2018-04-16T12:19:37.025Z,9.03
2018-04-16T12:22:04.552Z,11.20
2018-04-16T12:24:32.140Z,8.20
2018-04-16T12:27:05.606Z,12.57
2018-04-16T12:29:39.046Z,14.00
2018-04-16T12:32:06.708Z,14.43
2018-04-16T12:34:34.278Z,10.13
2018-04-16T12:37:13.686Z,9.97
2018-04-16T12:39:41.205Z,9.60
2018-04-16T12:42:08.732Z,10.83
2018-04-16T12:44:42.938Z,10.70
2018-04-16T12:47:16.345Z,8.50
2018-04-16T12:49:43.983Z,14.90
2018-04-16T12:52:11.564Z,12.40
2018-04-16T12:54:45.011Z,13.27
2018-04-16T12:57:13.288Z,10.50
2018-04-16T12:59:47.359Z,12.90
2018-04-16T13:02:14.883Z,9.60
2018-04-16T13:04:48.460Z,9.23
2018-04-16T13:07:22.719Z,9.17
2018-04-16T13:09:56.209Z,13.23
2018-04-16T13:12:23.738Z,10.50
2018-04-16T13:14:57.335Z,7.50
2018-04-16T13:17:25.625Z,7.73
2018-04-16T13:19:53.217Z,4.77
2018-04-16T13:22:20.766Z,8.03
2018-04-16T13:24:54.159Z,10.10
2018-04-16T13:27:21.697Z,9.80
2018-04-16T13:29:55.027Z,8.20
2018-04-16T13:32:28.562Z,5.00
2018-04-16T13:34:56.856Z,8.07
2018-04-16T13:37:24.380Z,5.80
2018-04-16T13:39:57.833Z,3.93
2018-04-16T13:42:25.347Z,3.60
2018-04-16T13:44:53.634Z,6.10
2018-04-16T13:47:27.613Z,6.70
2018-04-16T13:49:55.132Z,8.53
2018-04-16T13:52:28.613Z,6.97
2018-04-16T13:54:56.146Z,6.03
2018-04-16T13:57:41.964Z,10.80
2018-04-16T14:00:09.501Z,9.13
2018-04-16T14:02:43.362Z,10.67
2018-04-16T14:05:10.895Z,5.17
2018-04-16T14:07:44.313Z,6.70
2018-04-16T14:10:11.818Z,7.40
2018-04-16T14:12:40.095Z,7.17
2018-04-16T14:15:08.419Z,9.60
2018-04-16T14:17:41.695Z,3.33
2018-04-16T14:20:09.257Z,7.97
2018-04-16T14:22:36.785Z,8.70
2018-04-16T14:25:05.070Z,6.50
2018-04-16T14:27:32.621Z,6.70
2018-04-16T14:30:00.894Z,7.20
2018-04-16T14:32:29.166Z,7.60
2018-04-16T14:35:02.394Z,8.23
2018-04-16T14:37:36.004Z,11.90
2018-04-16T14:40:03.582Z,7.33
2018-04-16T14:42:38.515Z,7.83
2018-04-16T14:45:11.951Z,7.53
2018-04-16T14:47:40.263Z,6.43
2018-04-16T14:50:07.807Z,4.50
2018-04-16T14:52:46.785Z,4.80
2018-04-16T14:55:20.176Z,9.93
2018-04-16T14:57:47.732Z,7.73
2018-04-16T15:00:15.262Z,9.37
2018-04-16T15:02:42.778Z,10.90
2018-04-16T15:05:11.113Z,10.70
2018-04-16T15:07:44.282Z,12.53
2018-04-16T15:10:11.912Z,11.87
2018-04-16T15:12:39.507Z,7.37
2018-04-16T15:15:13.101Z,8.83
2018-04-16T15:17:40.617Z,10.60
2018-04-16T15:20:08.896Z,7.97
2018-04-16T15:22:37.224Z,8.00
2018-04-16T15:25:04.746Z,11.97
2018-04-16T15:27:32.319Z,12.40
2018-04-16T15:29:59.880Z,10.40
2018-04-16T15:32:27.417Z,8.30
2018-04-16T15:34:54.939Z,10.20
2018-04-16T15:37:22.493Z,8.50
2018-04-16T15:39:50.015Z,9.43
2018-04-16T15:42:17.568Z,13.63
2018-04-16T15:44:45.141Z,14.63
2018-04-16T15:47:12.656Z,9.60
2018-04-16T15:49:40.949Z,12.40
2018-04-16T15:52:08.498Z,17.63
2018-04-16T15:54:36.784Z,10.40
2018-04-16T15:57:04.301Z,9.50
2018-04-16T15:59:31.851Z,9.20
2018-04-16T16:01:59.470Z,10.13
2018-04-16T16:04:27.017Z,9.83
2018-04-16T16:06:54.585Z,6.77
2018-04-16T16:09:22.111Z,10.33
2018-04-16T16:11:50.401Z,11.10
2018-04-16T16:14:17.973Z,10.20
2018-04-16T16:16:45.728Z,11.33
2018-04-16T16:19:13.259Z,7.17
2018-04-16T16:21:41.591Z,10.63
2018-04-16T16:24:09.297Z,8.23
2018-04-16T16:26:37.618Z,8.77
2018-04-16T16:29:05.183Z,12.43
2018-04-16T16:31:32.837Z,13.50
2018-04-16T16:34:00.403Z,10.20
2018-04-16T16:36:27.965Z,8.50
2018-04-16T16:38:55.496Z,6.73
2018-04-16T16:41:23.020Z,11.53
2018-04-16T16:43:50.644Z,8.97
2018-04-16T16:46:18.173Z,10.00
2018-04-16T16:48:45.764Z,8.93
2018-04-16T16:51:13.305Z,9.90
2018-04-16T16:53:40.985Z,10.60
2018-04-16T16:56:08.656Z,11.07
2018-04-16T16:58:36.226Z,16.17
2018-04-16T17:01:03.764Z,14.83
2018-04-16T17:03:31.282Z,22.07
2018-04-16T17:05:59.607Z,11.87
2018-04-16T17:08:27.144Z,13.13
2018-04-16T17:10:54.684Z,30.07
2018-04-16T17:13:22.616Z,16.70
2018-04-16T17:15:50.128Z,11.17
2018-04-16T17:18:17.670Z,15.47
2018-04-16T17:20:45.218Z,12.40
2018-04-16T17:23:13.514Z,12.53
2018-04-16T17:25:41.042Z,11.40
2018-04-16T17:28:09.354Z,13.70
2018-04-16T17:30:36.888Z,10.63
2018-04-16T17:33:04.405Z,13.80
2018-04-16T17:35:31.972Z,9.43
2018-04-16T17:38:00.278Z,15.80
2018-04-16T17:40:28.578Z,11.83
2018-04-16T17:42:56.137Z,16.10
2018-04-16T17:45:23.672Z,14.87
2018-04-16T17:47:51.266Z,11.77
2018-04-16T17:50:19.550Z,17.97
2018-04-16T17:52:47.080Z,17.97
2018-04-16T17:55:14.660Z,16.10
2018-04-16T17:57:42.217Z,16.90
2018-04-16T18:00:09.744Z,15.60
2018-04-16T18:02:37.274Z,18.13
2018-04-16T18:05:04.849Z,17.97
2018-04-16T18:07:33.140Z,14.83
2018-04-16T18:10:00.717Z,15.87
2018-04-16T18:12:28.280Z,20.87
2018-04-16T18:14:55.797Z,14.33
2018-04-16T18:17:24.073Z,15.10
2018-04-16T18:19:52.397Z,15.80
2018-04-16T18:22:19.916Z,21.03
2018-04-16T18:24:48.209Z,14.50
2018-04-16T18:27:15.795Z,13.00
2018-04-16T18:29:43.337Z,14.73
2018-04-16T18:32:10.910Z,18.77
2018-04-16T18:34:38.572Z,14.90
2018-04-16T18:37:06.098Z,20.90
2018-04-16T18:39:33.625Z,19.00
2018-04-16T18:42:01.193Z,16.83
2018-04-16T18:44:29.508Z,11.77
2018-04-16T18:46:57.043Z,17.10
2018-04-16T18:49:24.602Z,15.63
2018-04-16T18:51:52.902Z,19.67
2018-04-16T18:54:20.440Z,25.13
2018-04-16T18:56:48.031Z,19.03
2018-04-16T18:59:15.613Z,17.00
2018-04-16T19:01:43.135Z,19.17
2018-04-16T19:04:10.690Z,14.73
2018-04-16T19:06:38.261Z,26.00
2018-04-16T19:09:05.813Z,18.10
2018-04-16T19:11:33.476Z,22.63
2018-04-16T19:14:01.000Z,21.73
2018-04-16T19:16:29.320Z,23.10
2018-04-16T19:18:56.883Z,18.77
2018-04-16T19:21:30.089Z,15.80
2018-04-16T19:23:57.649Z,17.00
2018-04-16T19:26:25.173Z,15.47
2018-04-16T19:28:52.700Z,16.57
2018-04-16T19:31:21.022Z,23.00
2018-04-16T19:33:54.141Z,17.73
2018-04-16T19:36:23.220Z,26.60
2018-04-16T19:38:50.754Z,24.60
2018-04-16T19:41:18.261Z,25.03
2018-04-16T19:43:46.595Z,25.97
2018-04-16T19:46:14.112Z,25.90
2018-04-16T19:48:48.027Z,30.03
2018-04-16T19:51:15.916Z,16.90
2018-04-16T19:53:43.477Z,26.63
2018-04-16T19:56:16.790Z,21.40
2018-04-16T19:58:44.320Z,20.13
2018-04-16T20:01:11.850Z,25.00
2018-04-16T20:03:45.857Z,22.07
2018-04-16T20:06:14.161Z,23.23
2018-04-16T20:08:41.697Z,23.70
2018-04-16T20:11:10.037Z,20.20
2018-04-16T20:13:37.558Z,21.63
2018-04-16T20:16:05.133Z,15.50
2018-04-16T20:18:32.800Z,33.03
2018-04-16T20:21:00.361Z,23.73
2018-04-16T20:23:27.893Z,24.77
2018-04-16T20:25:55.479Z,24.07
2018-04-16T20:28:22.999Z,15.90
2018-04-16T20:30:51.298Z,15.47
2018-04-16T20:33:18.873Z,21.87
2018-04-16T20:35:46.393Z,18.83
2018-04-16T20:38:13.913Z,20.33
2018-04-16T20:40:41.463Z,22.00
2018-04-16T20:43:08.984Z,18.67
2018-04-16T20:45:36.512Z,24.37
2018-04-16T20:48:04.923Z,20.00
2018-04-16T20:50:32.430Z,19.53
2018-04-16T20:52:59.950Z,19.43
2018-04-16T20:55:27.525Z,21.90
2018-04-16T20:57:55.036Z,23.80
2018-04-16T21:00:22.554Z,26.63
2018-04-16T21:02:50.135Z,24.20
2018-04-16T21:05:18.404Z,27.13
2018-04-16T21:07:45.929Z,29.20
2018-04-16T21:10:13.486Z,24.20
2018-04-16T21:12:41.024Z,27.47
2018-04-16T21:15:08.594Z,27.93
2018-04-16T21:17:37.505Z,27.97
2018-04-16T21:20:05.023Z,22.50
2018-04-16T21:22:32.551Z,26.90
2018-04-16T21:25:00.870Z,25.20
2018-04-16T21:27:28.390Z,29.60
2018-04-16T21:29:56.707Z,21.47
2018-04-16T21:32:24.256Z,21.57
2018-04-16T21:34:51.819Z,22.90
2018-04-16T21:37:20.651Z,28.70
2018-04-16T21:39:48.382Z,25.90
2018-04-16T21:42:17.844Z,18.10
2018-04-16T21:44:46.237Z,21.93
2018-04-16T21:47:13.796Z,19.33
2018-04-16T21:49:41.369Z,23.70
2018-04-16T21:52:08.928Z,27.53
2018-04-16T21:54:36.601Z,20.03
2018-04-16T21:57:04.145Z,22.47
2018-04-16T21:59:31.711Z,22.97
2018-04-16T22:01:59.259Z,18.80
2018-04-16T22:04:26.889Z,29.13
2018-04-16T22:06:55.178Z,24.53
2018-04-16T22:09:22.721Z,22.40
2018-04-16T22:11:51.017Z,25.07
2018-04-16T22:14:19.618Z,20.70
2018-04-16T22:16:47.214Z,23.13
2018-04-16T22:19:14.735Z,24.80
2018-04-16T22:21:42.255Z,31.73
2018-04-16T22:24:10.585Z,28.67
2018-04-16T22:26:38.111Z,34.70
2018-04-16T22:29:05.626Z,45.27
2018-04-16T22:31:33.241Z,23.60
2018-04-16T22:34:00.757Z,58.67
2018-04-16T22:36:29.083Z,28.00
2018-04-16T22:38:56.644Z,26.73
2018-04-16T22:41:24.174Z,23.87
2018-04-16T22:43:51.754Z,38.03
2018-04-16T22:46:19.378Z,26.83
2018-04-16T22:48:47.690Z,33.67
2018-04-16T22:51:15.222Z,28.10
2018-04-16T22:53:43.533Z,26.23
2018-04-16T22:56:11.048Z,30.43
2018-04-16T22:58:39.343Z,41.73
2018-04-16T23:01:06.880Z,24.30
2018-04-16T23:03:35.181Z,24.47
2018-04-16T23:06:02.713Z,26.43
2018-04-16T23:08:31.037Z,28.43
2018-04-16T23:10:58.561Z,35.30
2018-04-16T23:13:26.089Z,30.77
2018-04-16T23:15:53.654Z,26.53
2018-04-16T23:18:21.173Z,24.63
2018-04-16T23:20:48.673Z,31.73
2018-04-16T23:23:17.005Z,34.07
2018-04-16T23:25:44.528Z,36.70
2018-04-16T23:28:12.051Z,31.40
2018-04-16T23:30:39.601Z,36.60
2018-04-16T23:33:07.116Z,30.80
2018-04-16T23:35:34.631Z,26.90
2018-04-16T23:38:02.237Z,31.63
2018-04-16T23:40:29.770Z,38.00
2018-04-16T23:42:58.057Z,28.20
2018-04-16T23:45:25.610Z,32.60
2018-04-16T23:47:53.394Z,33.60
2018-04-16T23:50:20.906Z,30.27
2018-04-16T23:52:48.427Z,39.13
2018-04-16T23:55:15.980Z,31.90
2018-04-16T23:57:43.503Z,36.47
